Аэропорт
Полярный (UERP)

 UERP / PYJ
ЗЦ Хабаровск
Якутск (UEEE)
Якутск (UEEE)
 66.40040, 112.03000  / 1660 ft

 UERP 210130Z 00000MPS CAVOK M45/M49 Q1015 R35/450337 NOSIG RMK QFE717
 TAF UERP 202000Z 2021/2121 VRB01MPS CAVOK TXM48/2106Z TNM51/2101Z TEMPO 2100/2103 1000 BR NSC
UERP_j_0220
показать схемы
Название сценария Тип сценария Flight Simulator 9 Flight Simulator X Prepar3D v2 Prepar3D v3 Prepar3D v4 Prepar3D v5 xPlane
UERP FS9 бесплатный
UERP_P3D_v.4.4 бесплатный


2020 © VATRUS division (Privacy Policy)